createdAt,value
2023-08-15T03:51:47.389Z,60
2023-08-15T03:52:45.819Z,60
2023-08-15T03:53:47.236Z,61
2023-08-15T03:54:48.624Z,61
2023-08-15T03:55:50.059Z,61
2023-08-15T03:56:51.452Z,61
2023-08-15T03:57:52.832Z,60
2023-08-15T03:58:54.222Z,61
2023-08-15T03:59:55.621Z,61
2023-08-15T04:00:57.029Z,60
2023-08-15T04:01:59.356Z,60
2023-08-15T04:02:59.808Z,60
2023-08-15T04:04:01.288Z,60
2023-08-15T04:05:02.701Z,60
2023-08-15T04:06:04.095Z,60
2023-08-15T04:07:05.513Z,60
2023-08-15T04:08:06.938Z,60
2023-08-15T04:09:08.352Z,60
2023-08-15T04:10:09.725Z,60
2023-08-15T04:11:11.131Z,60
2023-08-15T04:12:12.526Z,60
2023-08-15T04:13:14.000Z,60
2023-08-15T04:14:15.414Z,60
2023-08-15T04:15:16.828Z,60
2023-08-15T04:16:18.258Z,60
2023-08-15T04:17:20.096Z,60
2023-08-15T04:18:21.665Z,60
2023-08-15T04:19:23.086Z,60
2023-08-15T04:20:24.658Z,60
2023-08-15T04:21:26.136Z,61
2023-08-15T04:22:27.514Z,61
2023-08-15T04:23:28.971Z,60
2023-08-15T04:24:30.392Z,60
2023-08-15T04:25:32.070Z,61
2023-08-15T04:26:33.452Z,61
2023-08-15T04:27:34.856Z,61
2023-08-15T04:28:36.306Z,60
2023-08-15T04:29:37.686Z,60
2023-08-15T04:30:39.080Z,60
2023-08-15T04:31:40.487Z,60
2023-08-15T04:32:41.875Z,60
2023-08-15T04:33:43.286Z,60
2023-08-15T04:34:44.691Z,60
2023-08-15T04:35:46.111Z,61
2023-08-15T04:36:47.525Z,61
2023-08-15T04:37:48.933Z,60
2023-08-15T04:38:50.367Z,60
2023-08-15T04:39:51.780Z,60
2023-08-15T04:40:53.155Z,61
2023-08-15T04:41:54.548Z,61
2023-08-15T04:42:55.970Z,61
2023-08-15T04:43:57.396Z,61
2023-08-15T04:44:58.779Z,61
2023-08-15T04:46:00.198Z,61
2023-08-15T04:47:01.584Z,61
2023-08-15T04:48:03.098Z,61
2023-08-15T04:49:04.513Z,61
2023-08-15T04:50:05.904Z,61
2023-08-15T04:51:07.388Z,61
2023-08-15T04:52:08.764Z,61
2023-08-15T04:53:10.169Z,61
2023-08-15T04:54:11.599Z,61
2023-08-15T04:55:13.003Z,61
2023-08-15T04:56:14.410Z,61
2023-08-15T04:57:15.835Z,61
2023-08-15T04:58:17.259Z,61
2023-08-15T04:59:18.661Z,61
2023-08-15T05:00:20.094Z,61
2023-08-15T05:01:21.501Z,61
2023-08-15T05:02:22.871Z,61
2023-08-15T05:03:24.244Z,61
2023-08-15T05:04:25.657Z,61
2023-08-15T05:05:27.138Z,61
2023-08-15T05:06:28.529Z,61
2023-08-15T05:07:29.919Z,61
2023-08-15T05:08:31.319Z,61
2023-08-15T05:09:32.750Z,61
2023-08-15T05:10:34.159Z,61
2023-08-15T05:11:35.553Z,61
2023-08-15T05:12:36.954Z,61
2023-08-15T05:13:38.361Z,61
2023-08-15T05:14:39.762Z,61
2023-08-15T05:15:41.220Z,61
2023-08-15T05:16:42.586Z,61
2023-08-15T05:17:44.023Z,61
2023-08-15T05:18:45.389Z,61
2023-08-15T05:19:46.807Z,60
2023-08-15T05:20:48.198Z,60
2023-08-15T05:21:49.610Z,60
2023-08-15T05:22:50.983Z,60
2023-08-15T05:23:52.343Z,60
2023-08-15T05:24:53.768Z,60
2023-08-15T05:25:55.158Z,61
2023-08-15T05:26:56.567Z,61
2023-08-15T05:27:57.943Z,61
2023-08-15T05:28:59.334Z,61
2023-08-15T05:30:00.838Z,61
2023-08-15T05:31:02.294Z,61
2023-08-15T05:32:03.679Z,61
2023-08-15T05:33:05.109Z,61
2023-08-15T05:34:08.304Z,61
2023-08-15T05:35:08.636Z,61
2023-08-15T05:36:10.020Z,61
2023-08-15T05:37:11.409Z,62
2023-08-15T05:38:12.801Z,62
2023-08-15T05:39:14.211Z,62
2023-08-15T05:40:15.627Z,62
2023-08-15T05:41:17.041Z,62
2023-08-15T05:42:18.434Z,63
2023-08-15T05:43:19.849Z,63
2023-08-15T05:44:21.215Z,63
2023-08-15T05:45:22.658Z,63
2023-08-15T05:46:24.078Z,63
2023-08-15T05:47:25.482Z,63
2023-08-15T05:48:26.929Z,63
2023-08-15T05:49:28.336Z,62
2023-08-15T05:50:29.756Z,62
2023-08-15T05:51:31.132Z,63
2023-08-15T05:52:32.527Z,63
2023-08-15T05:53:33.939Z,63
2023-08-15T05:54:35.366Z,63
2023-08-15T05:55:36.767Z,63
2023-08-15T05:56:38.171Z,63
2023-08-15T05:57:39.549Z,63
2023-08-15T05:58:40.930Z,63
2023-08-15T05:59:42.317Z,63
2023-08-15T06:00:43.736Z,63
2023-08-15T06:01:45.115Z,64
2023-08-15T06:02:46.542Z,64
2023-08-15T06:03:53.140Z,64
2023-08-15T06:04:49.830Z,64
2023-08-15T06:05:51.239Z,64
2023-08-15T06:06:52.630Z,64
2023-08-15T06:07:54.049Z,64
2023-08-15T06:08:55.449Z,64
2023-08-15T06:09:56.862Z,64
2023-08-15T06:10:58.300Z,64
2023-08-15T06:11:59.691Z,64
2023-08-15T06:13:01.088Z,65
2023-08-15T06:14:02.505Z,65
2023-08-15T06:15:03.891Z,65
2023-08-15T06:16:05.277Z,65
2023-08-15T06:17:06.720Z,65
2023-08-15T06:18:08.115Z,65
2023-08-15T06:19:09.494Z,65
2023-08-15T06:20:10.894Z,65
2023-08-15T06:21:12.325Z,65
2023-08-15T06:22:13.738Z,65
2023-08-15T06:23:15.132Z,65
2023-08-15T06:24:16.485Z,65
2023-08-15T06:25:17.892Z,65
2023-08-15T06:26:19.324Z,64
2023-08-15T06:27:20.945Z,64
2023-08-15T06:28:23.419Z,64
2023-08-15T06:29:23.714Z,65
2023-08-15T06:30:25.117Z,65
2023-08-15T06:31:26.923Z,65
2023-08-15T06:32:28.353Z,65
2023-08-15T06:33:29.752Z,65
2023-08-15T06:34:31.134Z,65
2023-08-15T06:35:32.534Z,65
2023-08-15T06:36:33.953Z,65
2023-08-15T06:37:35.370Z,65
2023-08-15T06:38:36.762Z,65
2023-08-15T06:39:38.165Z,65
2023-08-15T06:40:39.547Z,65
2023-08-15T06:41:40.968Z,65
2023-08-15T06:42:42.357Z,65
2023-08-15T06:43:43.779Z,65
2023-08-15T06:44:45.175Z,66
2023-08-15T06:45:46.558Z,66
2023-08-15T06:46:48.046Z,66
2023-08-15T06:47:49.441Z,66
2023-08-15T06:48:50.812Z,65
2023-08-15T06:49:52.201Z,65
2023-08-15T06:50:53.602Z,65
2023-08-15T06:51:55.002Z,65
2023-08-15T06:52:56.433Z,65
2023-08-15T06:53:57.814Z,65
2023-08-15T06:54:59.210Z,65
2023-08-15T06:56:00.638Z,65
2023-08-15T06:57:02.049Z,65
2023-08-15T06:58:03.472Z,65
2023-08-15T06:59:04.876Z,65
2023-08-15T07:00:06.241Z,66
2023-08-15T07:01:07.790Z,66
2023-08-15T07:02:09.311Z,66
2023-08-15T07:03:10.781Z,66
2023-08-15T07:04:12.219Z,66
2023-08-15T07:05:13.621Z,66
2023-08-15T07:06:15.009Z,66
2023-08-15T07:07:16.494Z,66
2023-08-15T07:08:17.843Z,66
2023-08-15T07:09:19.260Z,66
2023-08-15T07:10:20.673Z,66
2023-08-15T07:11:22.042Z,65
2023-08-15T07:12:23.685Z,65
2023-08-15T07:13:25.257Z,65
2023-08-15T07:14:26.627Z,65
2023-08-15T07:15:28.032Z,65
2023-08-15T07:16:29.479Z,65
2023-08-15T07:17:30.913Z,66
2023-08-15T07:18:32.355Z,66
2023-08-15T07:19:33.765Z,65
2023-08-15T07:20:35.862Z,65
2023-08-15T07:21:36.927Z,65
2023-08-15T07:22:38.346Z,65
2023-08-15T07:23:39.745Z,65
2023-08-15T07:24:42.051Z,65
2023-08-15T07:25:42.367Z,65
2023-08-15T07:26:43.755Z,65
2023-08-15T07:27:45.185Z,66
2023-08-15T07:28:46.573Z,67
2023-08-15T07:29:47.949Z,66
2023-08-15T07:30:49.344Z,66
2023-08-15T07:31:50.767Z,66
2023-08-15T07:32:52.308Z,66
2023-08-15T07:33:53.660Z,66
2023-08-15T07:34:55.057Z,66
2023-08-15T07:35:56.456Z,66
2023-08-15T07:36:57.855Z,66
2023-08-15T07:38:00.812Z,66
2023-08-15T07:39:00.945Z,66
2023-08-15T07:40:02.370Z,66
2023-08-15T07:41:03.777Z,66
2023-08-15T07:42:05.173Z,66
2023-08-15T07:43:06.576Z,66
2023-08-15T07:44:07.977Z,65
2023-08-15T07:45:09.390Z,65
2023-08-15T07:46:10.852Z,65
2023-08-15T07:47:12.230Z,65
2023-08-15T07:48:13.654Z,65
2023-08-15T07:49:15.069Z,65
2023-08-15T07:50:16.467Z,65
2023-08-15T07:51:17.880Z,65
2023-08-15T07:52:19.288Z,65
2023-08-15T07:53:20.711Z,65
2023-08-15T07:54:22.121Z,65
2023-08-15T07:55:23.510Z,65
2023-08-15T07:56:25.002Z,64
2023-08-15T07:57:26.402Z,65
2023-08-15T07:58:27.834Z,66
2023-08-15T07:59:29.226Z,56
2023-08-15T08:00:30.606Z,61
2023-08-15T08:01:32.050Z,68
2023-08-15T08:02:33.496Z,58
2023-08-15T08:03:34.920Z,62
2023-08-15T08:04:36.327Z,63
2023-08-15T08:05:37.750Z,64
2023-08-15T08:06:41.058Z,65
2023-08-15T08:07:52.240Z,65
2023-08-15T08:08:41.516Z,653.
2023-08-15T08:09:42.916Z,65
2023-08-15T08:10:44.927Z,65
2023-08-15T08:11:46.311Z,66
2023-08-15T08:12:47.718Z,66
2023-08-15T08:13:49.134Z,67
2023-08-15T08:14:57.266Z,69
2023-08-15T08:15:52.503Z,70
2023-08-15T08:16:53.856Z,63
2023-08-15T08:17:55.285Z,65
2023-08-15T08:18:56.702Z,65
2023-08-15T08:19:58.104Z,68
2023-08-15T08:20:59.495Z,73
2023-08-15T08:22:00.884Z,58
2023-08-15T08:23:02.287Z,75
2023-08-15T08:24:03.691Z,71
2023-08-15T08:25:05.213Z,69
2023-08-15T08:26:06.750Z,68
2023-08-15T08:27:08.142Z,69
2023-08-15T08:28:09.558Z,69
2023-08-15T08:29:10.962Z,68
2023-08-15T08:30:12.377Z,68
2023-08-15T08:31:13.816Z,69
2023-08-15T08:32:15.223Z,71
2023-08-15T08:33:16.593Z,69
2023-08-15T08:34:18.055Z,68
2023-08-15T08:35:19.466Z,68
2023-08-15T08:36:20.879Z,68
2023-08-15T08:37:22.286Z,68
2023-08-15T08:38:24.817Z,68
2023-08-15T08:39:31.709Z,68
2023-08-15T08:40:26.984Z,67
2023-08-15T08:41:28.400Z,67
2023-08-15T08:42:29.831Z,67
2023-08-15T08:43:31.212Z,67
2023-08-15T08:44:32.634Z,67
2023-08-15T08:45:34.050Z,67
2023-08-15T08:46:35.429Z,67
2023-08-15T08:47:36.828Z,67
2023-08-15T08:48:39.271Z,66
2023-08-15T08:49:39.757Z,67
2023-08-15T08:50:41.140Z,66
2023-08-15T08:51:42.540Z,66
2023-08-15T08:52:43.980Z,66
2023-08-15T08:53:45.351Z,66
2023-08-15T08:54:56.379Z,66
2023-08-15T08:55:48.731Z,66
2023-08-15T08:56:50.102Z,66
2023-08-15T08:57:51.525Z,66
2023-08-15T08:58:52.921Z,66
2023-08-15T08:59:54.368Z,67
2023-08-15T09:00:55.941Z,66
2023-08-15T09:01:57.300Z,66
2023-08-15T09:02:58.839Z,66
2023-08-15T09:04:00.332Z,66
2023-08-15T09:05:01.763Z,66
2023-08-15T09:06:03.174Z,66
2023-08-15T09:07:04.683Z,66
2023-08-15T09:08:06.027Z,66
2023-08-15T09:09:07.601Z,66
2023-08-15T09:10:08.974Z,66
2023-08-15T09:11:10.373Z,66
2023-08-15T09:12:11.787Z,65
2023-08-15T09:13:13.250Z,66
2023-08-15T09:14:14.611Z,65
2023-08-15T09:15:16.025Z,65
2023-08-15T09:16:17.452Z,65
2023-08-15T09:17:18.982Z,65
2023-08-15T09:18:20.563Z,65
2023-08-15T09:19:21.966Z,65
2023-08-15T09:20:23.411Z,65
2023-08-15T09:21:24.819Z,65
2023-08-15T09:22:26.259Z,65
2023-08-15T09:23:27.671Z,65
2023-08-15T09:24:29.083Z,65
2023-08-15T09:25:30.513Z,64
2023-08-15T09:26:31.908Z,64
2023-08-15T09:27:33.283Z,64
2023-08-15T09:28:34.710Z,64
2023-08-15T09:29:36.802Z,64
2023-08-15T09:30:38.248Z,68
2023-08-15T09:31:39.701Z,2188
2023-08-15T09:32:41.270Z,63
2023-08-15T09:33:42.674Z,63
2023-08-15T09:34:44.101Z,71
2023-08-15T09:35:57.320Z,64
2023-08-15T09:36:47.428Z,64
2023-08-15T09:37:48.966Z,65
2023-08-15T09:38:50.339Z,65
2023-08-15T09:39:51.719Z,65
2023-08-15T09:40:53.138Z,65
2023-08-15T09:41:54.547Z,67
2023-08-15T09:42:56.019Z,66
2023-08-15T09:43:57.421Z,65
2023-08-15T09:44:58.831Z,61
2023-08-15T09:46:00.427Z,70
2023-08-15T09:47:01.877Z,65
2023-08-15T09:48:03.307Z,64
2023-08-15T09:49:04.776Z,65
2023-08-15T09:50:06.175Z,65
2023-08-15T09:51:07.627Z,65
2023-08-15T09:52:09.025Z,65
2023-08-15T09:53:10.425Z,65
2023-08-15T09:54:11.849Z,65
2023-08-15T09:55:13.315Z,64
2023-08-15T09:56:14.741Z,65
2023-08-15T09:57:16.176Z,65
2023-08-15T09:58:17.563Z,65
2023-08-15T09:59:18.970Z,65
2023-08-15T10:00:20.383Z,65
2023-08-15T10:01:21.854Z,65
2023-08-15T10:02:23.232Z,65
2023-08-15T10:03:24.692Z,65
2023-08-15T10:04:26.038Z,65
2023-08-15T10:05:27.441Z,65
2023-08-15T10:06:28.857Z,66
2023-08-15T10:07:30.305Z,65
2023-08-15T10:08:31.704Z,65
2023-08-15T10:09:33.088Z,65
2023-08-15T10:10:34.485Z,68
2023-08-15T10:11:35.937Z,68
2023-08-15T10:12:37.345Z,66
2023-08-15T10:13:38.740Z,65
2023-08-15T10:14:40.142Z,65
2023-08-15T10:15:41.561Z,65
2023-08-15T10:16:43.024Z,65
2023-08-15T10:17:44.514Z,65
2023-08-15T10:18:45.925Z,65
2023-08-15T10:19:47.320Z,73
2023-08-15T10:20:48.715Z,61
2023-08-15T10:21:50.136Z,67
2023-08-15T10:22:51.548Z,62
2023-08-15T10:23:52.941Z,68
2023-08-15T10:24:54.370Z,65
2023-08-15T10:25:55.789Z,66
2023-08-15T10:26:57.175Z,66
2023-08-15T10:27:58.578Z,67
2023-08-15T10:28:59.985Z,67
2023-08-15T10:30:01.395Z,67
2023-08-15T10:31:02.867Z,68
2023-08-15T10:32:04.275Z,68
2023-08-15T10:33:05.704Z,68
2023-08-15T10:34:07.075Z,69
2023-08-15T10:35:08.505Z,59
2023-08-15T10:36:09.918Z,69
2023-08-15T10:37:11.363Z,68
2023-08-15T10:38:12.811Z,70
2023-08-15T10:39:14.268Z,67
2023-08-15T10:40:15.668Z,67
2023-08-15T10:41:17.111Z,69
2023-08-15T10:42:18.512Z,72
2023-08-15T10:43:19.921Z,65
2023-08-15T10:44:21.309Z,71
2023-08-15T10:45:22.716Z,69
2023-08-15T10:46:24.139Z,69
2023-08-15T10:47:25.605Z,71
2023-08-15T10:48:27.010Z,72
2023-08-15T10:49:28.399Z,65
2023-08-15T10:50:29.858Z,72
2023-08-15T10:51:31.312Z,69
2023-08-15T10:52:32.725Z,70
2023-08-15T10:53:34.132Z,68
2023-08-15T10:54:35.606Z,69
2023-08-15T10:55:37.016Z,69
2023-08-15T10:56:38.446Z,702.00
2023-08-15T10:57:39.846Z,705.00
2023-08-15T10:58:42.837Z,707.00
2023-08-15T10:59:43.213Z,708.00
2023-08-15T11:00:44.605Z,710.00
2023-08-15T11:01:46.031Z,707.00
2023-08-15T11:02:47.449Z,707.00
2023-08-15T11:03:48.853Z,709.00
2023-08-15T11:04:50.285Z,713.00
2023-08-15T11:05:51.664Z,712.00
2023-08-15T11:06:53.082Z,711.00
2023-08-15T11:07:54.510Z,707.00
2023-08-15T11:08:55.919Z,708.00
2023-08-15T11:09:57.305Z,709.00
2023-08-15T11:10:58.715Z,712.00
2023-08-15T11:12:00.140Z,712.00
2023-08-15T11:13:01.787Z,712.00
2023-08-15T11:14:03.182Z,711.00
2023-08-15T11:15:04.631Z,709.00
2023-08-15T11:16:06.031Z,712.00
2023-08-15T11:17:07.413Z,713.00
2023-08-15T11:18:08.848Z,711.00
2023-08-15T11:19:10.251Z,713.00
2023-08-15T11:20:11.662Z,711.00
2023-08-15T11:21:13.124Z,713.00
2023-08-15T11:22:14.545Z,712.00
2023-08-15T11:23:15.948Z,714.00
2023-08-15T11:24:17.601Z,711.00
2023-08-15T11:25:19.019Z,711.00
2023-08-15T11:26:20.395Z,710.00
2023-08-15T11:27:21.929Z,713.00
2023-08-15T11:28:23.456Z,715.00
2023-08-15T11:29:24.840Z,717.00
2023-08-15T11:30:26.226Z,712.00
2023-08-15T11:31:27.643Z,713.00
2023-08-15T11:32:29.048Z,710.00
2023-08-15T11:33:30.459Z,711.00
2023-08-15T11:34:31.869Z,715.00
2023-08-15T11:35:33.288Z,715.00
2023-08-15T11:36:34.796Z,715.00
2023-08-15T11:37:36.215Z,718.00
2023-08-15T11:38:37.656Z,717.00
2023-08-15T11:39:39.079Z,718.00
2023-08-15T11:40:40.465Z,715.00
2023-08-15T11:41:41.871Z,715.00
2023-08-15T11:42:43.255Z,712.00
2023-08-15T11:43:44.675Z,712.00
2023-08-15T11:44:46.111Z,712.00
2023-08-15T11:45:47.526Z,716.00
2023-08-15T11:46:54.481Z,714.00
2023-08-15T11:47:50.828Z,714.00
2023-08-15T11:48:52.284Z,710.00
2023-08-15T11:49:53.668Z,712.00
2023-08-15T11:50:55.069Z,712.00
2023-08-15T11:51:56.454Z,709.00
2023-08-15T11:52:57.853Z,707.00
2023-08-15T11:53:59.268Z,710.00
2023-08-15T11:55:00.657Z,714.00
2023-08-15T11:56:02.091Z,715.00
2023-08-15T11:57:03.510Z,712.00
2023-08-15T11:58:04.901Z,713.00
2023-08-15T11:59:06.341Z,711.00
2023-08-15T12:00:07.742Z,710.00
2023-08-15T12:01:09.161Z,710.00
2023-08-15T12:02:10.530Z,710.00
2023-08-15T12:03:12.030Z,711.00
2023-08-15T12:04:13.609Z,711.00
2023-08-15T12:05:15.015Z,713.00
2023-08-15T12:06:16.411Z,713.00
2023-08-15T12:07:17.813Z,714.00
2023-08-15T12:08:19.214Z,711.00
2023-08-15T12:09:20.620Z,714.00
2023-08-15T12:10:22.032Z,715.00
2023-08-15T12:11:23.447Z,715.00
2023-08-15T12:12:25.030Z,714.00
2023-08-15T12:13:26.589Z,713.00
2023-08-15T12:14:30.719Z,715.00
2023-08-15T12:15:29.919Z,717.00
2023-08-15T12:16:31.318Z,719.00
2023-08-15T12:17:32.815Z,722.00
2023-08-15T12:18:34.241Z,714.00
2023-08-15T12:19:35.683Z,715.00
2023-08-15T12:20:37.072Z,713.00
2023-08-15T12:21:38.484Z,691.00
2023-08-15T12:22:39.874Z,703.00
2023-08-15T12:23:41.277Z,719.00
2023-08-15T12:24:42.693Z,710.00
2023-08-15T12:25:44.114Z,713.00
2023-08-15T12:26:45.502Z,711.00
2023-08-15T12:27:46.916Z,713.00
2023-08-15T12:28:48.319Z,715.00
2023-08-15T12:30:12.335Z,715.00
2023-08-15T12:30:51.640Z,714.00
2023-08-15T12:31:53.135Z,713.00
2023-08-15T12:32:54.536Z,715.00
2023-08-15T12:33:55.928Z,716.00
2023-08-15T12:34:57.405Z,717.00
2023-08-15T12:35:58.778Z,719.00
2023-08-15T12:37:00.174Z,716.00
2023-08-15T12:38:01.583Z,715.00
2023-08-15T12:39:02.982Z,711.00
2023-08-15T12:40:07.889Z,708.00
2023-08-15T12:41:06.342Z,707.00
2023-08-15T12:42:07.700Z,707.00
2023-08-15T12:43:09.095Z,707.00
2023-08-15T12:44:10.517Z,710.00
2023-08-15T12:45:11.941Z,706.00
2023-08-15T12:46:13.568Z,704.00
2023-08-15T12:47:21.163Z,706.00
2023-08-15T12:48:17.057Z,710.00
2023-08-15T12:49:18.443Z,711.00
2023-08-15T12:50:19.879Z,710.00
2023-08-15T12:51:21.269Z,713.00
2023-08-15T12:52:22.821Z,711.00
2023-08-15T12:53:24.401Z,710.00
2023-08-15T12:54:25.915Z,709.00
2023-08-15T12:55:27.411Z,708.00
2023-08-15T12:56:28.784Z,708.00
2023-08-15T12:57:30.202Z,707.00
2023-08-15T12:58:31.576Z,705.00
2023-08-15T12:59:32.984Z,706.00
2023-08-15T13:00:34.432Z,732.00
2023-08-15T13:01:36.978Z,701.00
2023-08-15T13:02:37.774Z,704.00
2023-08-15T13:03:39.166Z,732.00
2023-08-15T13:04:40.602Z,738.00
2023-08-15T13:05:42.031Z,728.00
2023-08-15T13:06:43.455Z,71
2023-08-15T13:07:44.895Z,72
2023-08-15T13:08:46.300Z,72
2023-08-15T13:09:47.763Z,72
2023-08-15T13:10:49.166Z,72
2023-08-15T13:11:50.583Z,72
2023-08-15T13:12:51.979Z,71
2023-08-15T13:13:53.463Z,71
2023-08-15T13:15:04.187Z,70
2023-08-15T13:15:56.783Z,70
2023-08-15T13:16:58.184Z,70
2023-08-15T13:17:59.558Z,70
2023-08-15T13:19:00.944Z,70
2023-08-15T13:20:02.321Z,69
2023-08-15T13:21:03.756Z,69
2023-08-15T13:22:05.213Z,69
2023-08-15T13:23:06.594Z,69
2023-08-15T13:24:08.054Z,69
2023-08-15T13:25:09.495Z,69
2023-08-15T13:26:10.903Z,69
2023-08-15T13:27:12.295Z,68
2023-08-15T13:28:13.681Z,68
2023-08-15T13:29:15.246Z,68
2023-08-15T13:30:16.638Z,68
2023-08-15T13:31:18.100Z,68
2023-08-15T13:32:19.629Z,68
2023-08-15T13:33:21.199Z,68
2023-08-15T13:34:22.603Z,68
2023-08-15T13:35:23.995Z,68
2023-08-15T13:36:25.440Z,68
2023-08-15T13:37:26.814Z,68
2023-08-15T13:38:28.263Z,68
2023-08-15T13:39:29.663Z,68
2023-08-15T13:40:31.063Z,68
2023-08-15T13:41:32.482Z,68
2023-08-15T13:42:38.779Z,68
2023-08-15T13:43:35.850Z,68
2023-08-15T13:44:37.253Z,68
2023-08-15T13:45:38.676Z,68
2023-08-15T13:46:40.162Z,67
2023-08-15T13:47:41.665Z,67
2023-08-15T13:48:43.027Z,67
2023-08-15T13:49:44.558Z,67
2023-08-15T13:50:45.939Z,67
2023-08-15T13:51:47.350Z,67
2023-08-15T13:52:48.743Z,67
2023-08-15T13:53:50.144Z,67
2023-08-15T13:54:51.538Z,67
2023-08-15T13:55:52.936Z,67
2023-08-15T13:56:55.753Z,68
2023-08-15T13:57:56.330Z,68
2023-08-15T13:58:57.753Z,68
2023-08-15T13:59:59.144Z,67
2023-08-15T14:01:00.539Z,67
2023-08-15T14:02:02.055Z,67
2023-08-15T14:03:03.488Z,67
2023-08-15T14:04:04.862Z,67
2023-08-15T14:05:06.260Z,67
2023-08-15T14:06:07.673Z,67
2023-08-15T14:07:09.083Z,67
2023-08-15T14:08:10.471Z,66
2023-08-15T14:09:11.862Z,66
2023-08-15T14:10:13.440Z,66
2023-08-15T14:11:14.843Z,66
2023-08-15T14:12:16.254Z,66
2023-08-15T14:13:17.645Z,66
2023-08-15T14:14:19.038Z,66
2023-08-15T14:15:20.461Z,66
2023-08-15T14:16:22.155Z,66
2023-08-15T14:17:23.534Z,66
2023-08-15T14:18:24.942Z,66
2023-08-15T14:19:26.349Z,66
2023-08-15T14:20:27.769Z,65
2023-08-15T14:21:29.161Z,66
2023-08-15T14:22:30.587Z,66
2023-08-15T14:23:31.978Z,65
2023-08-15T14:24:33.362Z,65
2023-08-15T14:25:34.782Z,65
2023-08-15T14:26:36.194Z,65
2023-08-15T14:27:37.648Z,65
2023-08-15T14:28:39.052Z,66
2023-08-15T14:29:40.440Z,66
2023-08-15T14:30:41.866Z,65
2023-08-15T14:31:43.256Z,65
2023-08-15T14:32:44.786Z,65
2023-08-15T14:33:46.151Z,65
2023-08-15T14:34:47.551Z,65
2023-08-15T14:35:49.880Z,64
2023-08-15T14:36:50.160Z,64
2023-08-15T14:37:51.573Z,64
2023-08-15T14:38:52.987Z,64
2023-08-15T14:39:54.408Z,64
2023-08-15T14:40:55.815Z,64
2023-08-15T14:41:57.222Z,64
2023-08-15T14:42:58.677Z,64
2023-08-15T14:44:00.067Z,64
2023-08-15T14:45:01.492Z,63
2023-08-15T14:46:02.902Z,63
2023-08-15T14:47:04.308Z,63
2023-08-15T14:48:05.799Z,63
2023-08-15T14:49:07.206Z,63
2023-08-15T14:50:08.621Z,64
2023-08-15T14:51:10.018Z,63
2023-08-15T14:52:11.398Z,64
2023-08-15T14:53:12.803Z,64
2023-08-15T14:54:14.226Z,64
2023-08-15T14:55:15.639Z,64
2023-08-15T14:56:18.533Z,64
2023-08-15T14:57:18.963Z,63
2023-08-15T14:58:20.400Z,64
2023-08-15T14:59:21.790Z,64
2023-08-15T15:00:23.182Z,64
2023-08-15T15:01:24.701Z,64
2023-08-15T15:02:26.282Z,64
2023-08-15T15:03:28.080Z,64
2023-08-15T15:04:29.518Z,64
2023-08-15T15:05:30.919Z,64
2023-08-15T15:06:32.294Z,63
2023-08-15T15:07:33.706Z,64
2023-08-15T15:08:35.137Z,64
2023-08-15T15:09:36.648Z,64
2023-08-15T15:10:38.052Z,64
2023-08-15T15:11:39.464Z,64
2023-08-15T15:12:40.839Z,64
2023-08-15T15:13:42.243Z,63
2023-08-15T15:14:43.686Z,63
2023-08-15T15:15:53.786Z,63
2023-08-15T15:16:47.149Z,63
2023-08-15T15:17:48.669Z,62
2023-08-15T15:18:50.156Z,62
2023-08-15T15:19:51.801Z,62
2023-08-15T15:20:53.382Z,62
2023-08-15T15:21:54.822Z,62
2023-08-15T15:22:56.266Z,62
2023-08-15T15:23:57.727Z,62
2023-08-15T15:24:59.092Z,62
2023-08-15T15:26:00.480Z,62
2023-08-15T15:27:01.882Z,62
2023-08-15T15:28:03.263Z,62
2023-08-15T15:29:04.689Z,62
2023-08-15T15:30:06.074Z,62
2023-08-15T15:31:07.498Z,63
2023-08-15T15:32:08.944Z,63
2023-08-15T15:33:10.423Z,63
2023-08-15T15:34:11.887Z,63
2023-08-15T15:35:13.276Z,63
2023-08-15T15:36:14.677Z,62
2023-08-15T15:37:16.071Z,62
2023-08-15T15:38:17.467Z,63
2023-08-15T15:39:18.857Z,63
2023-08-15T15:40:20.247Z,63
2023-08-15T15:41:21.633Z,62
2023-08-15T15:42:23.242Z,62
2023-08-15T15:43:24.812Z,62
2023-08-15T15:44:26.296Z,62
2023-08-15T15:45:27.698Z,62
2023-08-15T15:46:35.016Z,62
2023-08-15T15:47:31.088Z,62
2023-08-15T15:48:32.532Z,62
2023-08-15T15:49:33.940Z,62
2023-08-15T15:50:35.329Z,62
2023-08-15T15:51:36.724Z,62
2023-08-15T15:52:38.113Z,62
2023-08-15T15:53:39.514Z,62
2023-08-15T15:54:40.940Z,62
2023-08-15T15:55:42.343Z,62
2023-08-15T15:56:43.733Z,62
2023-08-15T15:57:45.128Z,62
2023-08-15T15:58:46.516Z,62
2023-08-15T15:59:47.951Z,62
2023-08-15T16:00:49.351Z,62
2023-08-15T16:01:50.755Z,62
2023-08-15T16:02:52.119Z,62
2023-08-15T16:03:53.498Z,62
2023-08-15T16:04:54.877Z,62
2023-08-15T16:05:56.263Z,62
2023-08-15T16:06:57.675Z,62
2023-08-15T16:07:59.061Z,63
2023-08-15T16:09:00.481Z,62
2023-08-15T16:10:01.918Z,62
2023-08-15T16:11:03.300Z,62
2023-08-15T16:12:04.674Z,62
2023-08-15T16:13:06.095Z,62
2023-08-15T16:14:07.491Z,63
2023-08-15T16:15:08.899Z,62
2023-08-15T16:16:10.308Z,62
2023-08-15T16:17:11.724Z,63
2023-08-15T16:18:13.125Z,62
2023-08-15T16:19:14.525Z,62
2023-08-15T16:20:15.928Z,62
2023-08-15T16:21:19.199Z,62
2023-08-15T16:22:19.441Z,62
2023-08-15T16:23:20.951Z,62
2023-08-15T16:24:22.348Z,62
2023-08-15T16:25:23.747Z,62
2023-08-15T16:26:25.165Z,62
2023-08-15T16:27:26.570Z,62
2023-08-15T16:28:27.955Z,62
2023-08-15T16:29:29.348Z,62
2023-08-15T16:30:30.737Z,61
2023-08-15T16:31:32.177Z,61
2023-08-15T16:32:33.573Z,62
2023-08-15T16:33:34.942Z,62
2023-08-15T16:34:36.370Z,62
2023-08-15T16:35:37.762Z,62
2023-08-15T16:36:39.161Z,62
2023-08-15T16:37:41.359Z,62
2023-08-15T16:38:41.682Z,62
2023-08-15T16:39:43.072Z,61
2023-08-15T16:40:44.499Z,61
2023-08-15T16:41:45.893Z,61
2023-08-15T16:42:47.298Z,61
2023-08-15T16:43:49.418Z,61
2023-08-15T16:44:50.317Z,61
2023-08-15T16:45:51.788Z,62
2023-08-15T16:46:53.251Z,62
2023-08-15T16:47:54.600Z,62
2023-08-15T16:48:55.976Z,62
2023-08-15T16:49:57.365Z,62
2023-08-15T16:50:58.775Z,61
2023-08-15T16:52:00.199Z,61
2023-08-15T16:53:01.582Z,61
2023-08-15T16:54:02.969Z,61
2023-08-15T16:55:04.356Z,61
2023-08-15T16:56:05.751Z,61
2023-08-15T16:57:07.161Z,61
2023-08-15T16:58:08.552Z,61
2023-08-15T16:59:09.965Z,61
2023-08-15T17:00:11.384Z,61
2023-08-15T17:01:12.876Z,61
2023-08-15T17:02:14.279Z,61
2023-08-15T17:03:15.783Z,61
2023-08-15T17:04:17.225Z,61
2023-08-15T17:05:18.633Z,61
2023-08-15T17:06:20.028Z,62
2023-08-15T17:07:21.422Z,62
2023-08-15T17:08:22.842Z,62
2023-08-15T17:09:24.231Z,62
2023-08-15T17:10:25.622Z,62
2023-08-15T17:11:27.042Z,62
2023-08-15T17:12:28.429Z,62
2023-08-15T17:13:30.008Z,62
2023-08-15T17:14:31.395Z,62
2023-08-15T17:15:32.796Z,62
2023-08-15T17:16:34.218Z,62
2023-08-15T17:17:35.631Z,62
2023-08-15T17:18:37.033Z,62
2023-08-15T17:19:38.418Z,63
2023-08-15T17:20:39.800Z,63
2023-08-15T17:21:41.243Z,63
2023-08-15T17:22:42.634Z,62
2023-08-15T17:23:44.018Z,62
2023-08-15T17:24:45.427Z,62
2023-08-15T17:25:48.427Z,62
2023-08-15T17:26:47.969Z,62
2023-08-15T17:27:49.354Z,62
2023-08-15T17:28:50.770Z,62
2023-08-15T17:29:52.161Z,62
2023-08-15T17:30:53.649Z,62
2023-08-15T17:31:55.076Z,62
2023-08-15T17:32:56.514Z,62
2023-08-15T17:33:57.887Z,62
2023-08-15T17:34:59.323Z,62
2023-08-15T17:36:00.777Z,62
2023-08-15T17:37:02.210Z,62
2023-08-15T17:38:03.616Z,62
2023-08-15T17:39:05.012Z,62
2023-08-15T17:40:06.411Z,62
2023-08-15T17:41:07.833Z,62
2023-08-15T17:42:09.249Z,61
2023-08-15T17:43:10.683Z,61
2023-08-15T17:44:12.090Z,61
2023-08-15T17:45:13.538Z,62
2023-08-15T17:46:14.918Z,62
2023-08-15T17:47:16.383Z,62
2023-08-15T17:48:17.762Z,62
2023-08-15T17:49:19.154Z,62
2023-08-15T17:50:20.543Z,62
2023-08-15T17:51:21.961Z,62
2023-08-15T17:52:23.614Z,62
2023-08-15T17:53:25.156Z,62
2023-08-15T17:54:26.544Z,62
2023-08-15T17:55:27.954Z,62
2023-08-15T17:56:29.366Z,62
2023-08-15T17:57:30.779Z,62
2023-08-15T17:58:32.181Z,62
2023-08-15T17:59:33.571Z,62
2023-08-15T18:00:35.011Z,62
2023-08-15T18:01:36.419Z,62
2023-08-15T18:02:37.837Z,62
2023-08-15T18:03:39.267Z,62
2023-08-15T18:04:40.664Z,63
2023-08-15T18:05:42.044Z,63
2023-08-15T18:06:43.661Z,63
2023-08-15T18:07:45.072Z,63
2023-08-15T18:08:46.464Z,63